<?xml version="1.0" encoding="UTF-8" standalone="no" ?>
<gpx xmlns="http://www.topografix.com/GPX/1/1" xmlns:xsi="http://www.w3.org/2001/XMLSchema-instance" xsi:schemaLocation="http://www.topografix.com/GPX/1/1 http://www.topografix.com/GPX/1/1/gpx.xsd" version="1.1" creator="VisuGPX - https://www.visugpx.com">
  <metadata>
    <name>Sentier Quarteaux modifié</name>
  </metadata>
  <wpt lat="47.22036" lon="4.94556">
    <ele>419.78</ele>
    <name><![CDATA[Arrêt de ~8 min]]></name>
    <desc><![CDATA[Altitude: 420 m
Durée depuis le départ: 00:05:06
Distance depuis le départ: 175 m]]></desc>
  </wpt>
  <wpt lat="47.22358" lon="4.93604">
    <ele>502.37</ele>
    <name><![CDATA[Arrêt de ~4 min]]></name>
    <desc><![CDATA[Altitude: 502 m
Durée depuis le départ: 02:18:07
Distance depuis le départ: 4,01 km]]></desc>
  </wpt>
  <wpt lat="47.22358" lon="4.93604">
    <ele>502.37</ele>
    <name><![CDATA[Arrêt de ~4 min]]></name>
    <desc><![CDATA[Altitude: 502 m
Durée depuis le départ: 02:18:07
Distance depuis le départ: 4,01 km]]></desc>
  </wpt>
  <trk>
    <name><![CDATA[13 juil. 2025 10:09:49]]></name>
    <extensions>
      <line xmlns="http://www.topografix.com/GPX/gpx_style/0/2">
        <color>0000FF</color>
        <width>4</width>
      </line>
    </extensions>
    <trkseg>
      <trkpt lat="47.22124" lon="4.94738">
        <ele>380.63</ele>
        <time>2025-07-13T08:09:55Z</time>
      </trkpt>
      <trkpt lat="47.22117" lon="4.9473">
        <ele>383.93</ele>
        <time>2025-07-13T08:10:07Z</time>
      </trkpt>
      <trkpt lat="47.2211" lon="4.9472">
        <ele>384.54</ele>
        <time>2025-07-13T08:10:21Z</time>
      </trkpt>
      <trkpt lat="47.22104" lon="4.94709">
        <ele>392.64</ele>
        <time>2025-07-13T08:10:49Z</time>
      </trkpt>
      <trkpt lat="47.22098" lon="4.947">
        <ele>397.15</ele>
        <time>2025-07-13T08:11:07Z</time>
      </trkpt>
      <trkpt lat="47.22091" lon="4.9469">
        <ele>395.44</ele>
        <time>2025-07-13T08:11:23Z</time>
      </trkpt>
      <trkpt lat="47.22084" lon="4.94682">
        <ele>397.76</ele>
        <time>2025-07-13T08:11:36Z</time>
      </trkpt>
      <trkpt lat="47.22077" lon="4.94673">
        <ele>401.93</ele>
        <time>2025-07-13T08:11:51Z</time>
      </trkpt>
      <trkpt lat="47.2207" lon="4.94664">
        <ele>402.21</ele>
        <time>2025-07-13T08:12:09Z</time>
      </trkpt>
      <trkpt lat="47.22064" lon="4.94653">
        <ele>402.25</ele>
        <time>2025-07-13T08:12:28Z</time>
      </trkpt>
      <trkpt lat="47.22059" lon="4.94642">
        <ele>401.64</ele>
        <time>2025-07-13T08:12:46Z</time>
      </trkpt>
      <trkpt lat="47.22054" lon="4.9463">
        <ele>402.8</ele>
        <time>2025-07-13T08:13:01Z</time>
      </trkpt>
      <trkpt lat="47.22053" lon="4.94617">
        <ele>407.71</ele>
        <time>2025-07-13T08:13:20Z</time>
      </trkpt>
      <trkpt lat="47.22048" lon="4.94605">
        <ele>409</ele>
        <time>2025-07-13T08:13:38Z</time>
      </trkpt>
      <trkpt lat="47.22044" lon="4.94592">
        <ele>410.4</ele>
        <time>2025-07-13T08:13:58Z</time>
      </trkpt>
      <trkpt lat="47.22046" lon="4.94579">
        <ele>410.38</ele>
        <time>2025-07-13T08:14:14Z</time>
      </trkpt>
      <trkpt lat="47.22042" lon="4.94567">
        <ele>416.8</ele>
        <time>2025-07-13T08:14:36Z</time>
      </trkpt>
      <trkpt lat="47.22036" lon="4.94556">
        <ele>419.78</ele>
        <time>2025-07-13T08:14:56Z</time>
      </trkpt>
      <trkpt lat="47.22032" lon="4.94552">
        <ele>421.67</ele>
        <time>2025-07-13T08:17:26Z</time>
      </trkpt>
      <trkpt lat="47.2203" lon="4.94538">
        <ele>422.01</ele>
        <time>2025-07-13T08:17:55Z</time>
      </trkpt>
      <trkpt lat="47.22027" lon="4.94526">
        <ele>424.73</ele>
        <time>2025-07-13T08:18:13Z</time>
      </trkpt>
      <trkpt lat="47.22021" lon="4.94515">
        <ele>423.11</ele>
        <time>2025-07-13T08:18:27Z</time>
      </trkpt>
      <trkpt lat="47.22014" lon="4.94506">
        <ele>424.71</ele>
        <time>2025-07-13T08:18:44Z</time>
      </trkpt>
      <trkpt lat="47.22007" lon="4.94498">
        <ele>417.23</ele>
        <time>2025-07-13T08:19:12Z</time>
      </trkpt>
      <trkpt lat="47.22006" lon="4.94515">
        <ele>425.4</ele>
        <time>2025-07-13T08:19:51Z</time>
      </trkpt>
      <trkpt lat="47.22" lon="4.94531">
        <ele>431.67</ele>
        <time>2025-07-13T08:21:23Z</time>
      </trkpt>
      <trkpt lat="47.21991" lon="4.94527">
        <ele>441.15</ele>
        <time>2025-07-13T08:22:09Z</time>
      </trkpt>
      <trkpt lat="47.21989" lon="4.94543">
        <ele>451.96</ele>
        <time>2025-07-13T08:23:30Z</time>
      </trkpt>
      <trkpt lat="47.2199" lon="4.94557">
        <ele>449.28</ele>
        <time>2025-07-13T08:23:50Z</time>
      </trkpt>
      <trkpt lat="47.21981" lon="4.94546">
        <ele>453.97</ele>
        <time>2025-07-13T08:24:35Z</time>
      </trkpt>
      <trkpt lat="47.21982" lon="4.94564">
        <ele>462.53</ele>
        <time>2025-07-13T08:25:26Z</time>
      </trkpt>
      <trkpt lat="47.21984" lon="4.94577">
        <ele>464.8</ele>
        <time>2025-07-13T08:25:49Z</time>
      </trkpt>
      <trkpt lat="47.21975" lon="4.94576">
        <ele>465.31</ele>
        <time>2025-07-13T08:26:09Z</time>
      </trkpt>
      <trkpt lat="47.2197" lon="4.94573">
        <ele>466.79</ele>
        <time>2025-07-13T08:28:10Z</time>
      </trkpt>
      <trkpt lat="47.21964" lon="4.94563">
        <ele>468.78</ele>
        <time>2025-07-13T08:29:55Z</time>
      </trkpt>
      <trkpt lat="47.21962" lon="4.9455">
        <ele>470.74</ele>
        <time>2025-07-13T08:30:18Z</time>
      </trkpt>
      <trkpt lat="47.21966" lon="4.94537">
        <ele>470.79</ele>
        <time>2025-07-13T08:30:35Z</time>
      </trkpt>
      <trkpt lat="47.21972" lon="4.94527">
        <ele>466.99</ele>
        <time>2025-07-13T08:30:57Z</time>
      </trkpt>
      <trkpt lat="47.21976" lon="4.94515">
        <ele>464.95</ele>
        <time>2025-07-13T08:31:40Z</time>
      </trkpt>
      <trkpt lat="47.21976" lon="4.94502">
        <ele>465.23</ele>
        <time>2025-07-13T08:32:02Z</time>
      </trkpt>
      <trkpt lat="47.21975" lon="4.94488">
        <ele>464.09</ele>
        <time>2025-07-13T08:32:14Z</time>
      </trkpt>
      <trkpt lat="47.21976" lon="4.94474">
        <ele>464.66</ele>
        <time>2025-07-13T08:32:26Z</time>
      </trkpt>
      <trkpt lat="47.21974" lon="4.94461">
        <ele>464.67</ele>
        <time>2025-07-13T08:32:40Z</time>
      </trkpt>
      <trkpt lat="47.21975" lon="4.94447">
        <ele>465.85</ele>
        <time>2025-07-13T08:32:53Z</time>
      </trkpt>
      <trkpt lat="47.2197" lon="4.94436">
        <ele>465.66</ele>
        <time>2025-07-13T08:33:05Z</time>
      </trkpt>
      <trkpt lat="47.21968" lon="4.94422">
        <ele>467.22</ele>
        <time>2025-07-13T08:33:30Z</time>
      </trkpt>
      <trkpt lat="47.21966" lon="4.94409">
        <ele>468.91</ele>
        <time>2025-07-13T08:33:41Z</time>
      </trkpt>
      <trkpt lat="47.21961" lon="4.94398">
        <ele>469.02</ele>
        <time>2025-07-13T08:33:51Z</time>
      </trkpt>
      <trkpt lat="47.21957" lon="4.94386">
        <ele>470.32</ele>
        <time>2025-07-13T08:34:14Z</time>
      </trkpt>
      <trkpt lat="47.2195" lon="4.94376">
        <ele>470.82</ele>
        <time>2025-07-13T08:34:28Z</time>
      </trkpt>
      <trkpt lat="47.21945" lon="4.94365">
        <ele>472.39</ele>
        <time>2025-07-13T08:34:44Z</time>
      </trkpt>
      <trkpt lat="47.2194" lon="4.94353">
        <ele>473.69</ele>
        <time>2025-07-13T08:35:00Z</time>
      </trkpt>
      <trkpt lat="47.21937" lon="4.94341">
        <ele>470.01</ele>
        <time>2025-07-13T08:35:11Z</time>
      </trkpt>
      <trkpt lat="47.21934" lon="4.94328">
        <ele>471.99</ele>
        <time>2025-07-13T08:35:21Z</time>
      </trkpt>
      <trkpt lat="47.21926" lon="4.94321">
        <ele>472.59</ele>
        <time>2025-07-13T08:35:36Z</time>
      </trkpt>
      <trkpt lat="47.21919" lon="4.94311">
        <ele>473.36</ele>
        <time>2025-07-13T08:35:49Z</time>
      </trkpt>
      <trkpt lat="47.21917" lon="4.94299">
        <ele>474.31</ele>
        <time>2025-07-13T08:36:07Z</time>
      </trkpt>
      <trkpt lat="47.2191" lon="4.94289">
        <ele>471.79</ele>
        <time>2025-07-13T08:36:21Z</time>
      </trkpt>
      <trkpt lat="47.21908" lon="4.94275">
        <ele>474.72</ele>
        <time>2025-07-13T08:36:36Z</time>
      </trkpt>
      <trkpt lat="47.21905" lon="4.94261">
        <ele>472.55</ele>
        <time>2025-07-13T08:36:49Z</time>
      </trkpt>
      <trkpt lat="47.21904" lon="4.94247">
        <ele>471.83</ele>
        <time>2025-07-13T08:37:04Z</time>
      </trkpt>
      <trkpt lat="47.21898" lon="4.94237">
        <ele>469.14</ele>
        <time>2025-07-13T08:37:15Z</time>
      </trkpt>
      <trkpt lat="47.21898" lon="4.94223">
        <ele>469.98</ele>
        <time>2025-07-13T08:37:28Z</time>
      </trkpt>
      <trkpt lat="47.21896" lon="4.94208">
        <ele>472.2</ele>
        <time>2025-07-13T08:37:44Z</time>
      </trkpt>
      <trkpt lat="47.21891" lon="4.94197">
        <ele>472.37</ele>
        <time>2025-07-13T08:37:55Z</time>
      </trkpt>
      <trkpt lat="47.21886" lon="4.94185">
        <ele>470.94</ele>
        <time>2025-07-13T08:38:13Z</time>
      </trkpt>
      <trkpt lat="47.21882" lon="4.94174">
        <ele>471.17</ele>
        <time>2025-07-13T08:38:28Z</time>
      </trkpt>
      <trkpt lat="47.21877" lon="4.94161">
        <ele>464.06</ele>
        <time>2025-07-13T08:38:39Z</time>
      </trkpt>
      <trkpt lat="47.21872" lon="4.94149">
        <ele>462.34</ele>
        <time>2025-07-13T08:38:49Z</time>
      </trkpt>
      <trkpt lat="47.21869" lon="4.94136">
        <ele>467.89</ele>
        <time>2025-07-13T08:39:02Z</time>
      </trkpt>
      <trkpt lat="47.21865" lon="4.94123">
        <ele>467.7</ele>
        <time>2025-07-13T08:39:15Z</time>
      </trkpt>
      <trkpt lat="47.21859" lon="4.94113">
        <ele>464.69</ele>
        <time>2025-07-13T08:39:27Z</time>
      </trkpt>
      <trkpt lat="47.21851" lon="4.94105">
        <ele>465.42</ele>
        <time>2025-07-13T08:39:39Z</time>
      </trkpt>
      <trkpt lat="47.21843" lon="4.94097">
        <ele>464.08</ele>
        <time>2025-07-13T08:39:50Z</time>
      </trkpt>
      <trkpt lat="47.21835" lon="4.9409">
        <ele>464.55</ele>
        <time>2025-07-13T08:40:01Z</time>
      </trkpt>
      <trkpt lat="47.21829" lon="4.94079">
        <ele>461.04</ele>
        <time>2025-07-13T08:40:12Z</time>
      </trkpt>
      <trkpt lat="47.21821" lon="4.94073">
        <ele>457.88</ele>
        <time>2025-07-13T08:40:25Z</time>
      </trkpt>
      <trkpt lat="47.21815" lon="4.94062">
        <ele>459.02</ele>
        <time>2025-07-13T08:40:37Z</time>
      </trkpt>
      <trkpt lat="47.21809" lon="4.94051">
        <ele>462.93</ele>
        <time>2025-07-13T08:40:47Z</time>
      </trkpt>
      <trkpt lat="47.21804" lon="4.9404">
        <ele>467.6</ele>
        <time>2025-07-13T08:41:05Z</time>
      </trkpt>
      <trkpt lat="47.21795" lon="4.94035">
        <ele>465.78</ele>
        <time>2025-07-13T08:41:20Z</time>
      </trkpt>
      <trkpt lat="47.21785" lon="4.94033">
        <ele>461.61</ele>
        <time>2025-07-13T08:41:32Z</time>
      </trkpt>
      <trkpt lat="47.21776" lon="4.94036">
        <ele>460.57</ele>
        <time>2025-07-13T08:41:58Z</time>
      </trkpt>
      <trkpt lat="47.21767" lon="4.94034">
        <ele>465.08</ele>
        <time>2025-07-13T08:42:13Z</time>
      </trkpt>
      <trkpt lat="47.21758" lon="4.94028">
        <ele>467.2</ele>
        <time>2025-07-13T08:42:31Z</time>
      </trkpt>
      <trkpt lat="47.21751" lon="4.9402">
        <ele>468.99</ele>
        <time>2025-07-13T08:42:48Z</time>
      </trkpt>
      <trkpt lat="47.21741" lon="4.94019">
        <ele>467.46</ele>
        <time>2025-07-13T08:42:59Z</time>
      </trkpt>
      <trkpt lat="47.21733" lon="4.94013">
        <ele>467.91</ele>
        <time>2025-07-13T08:43:29Z</time>
      </trkpt>
      <trkpt lat="47.21731" lon="4.93999">
        <ele>461.85</ele>
        <time>2025-07-13T08:43:43Z</time>
      </trkpt>
      <trkpt lat="47.21729" lon="4.93984">
        <ele>463.71</ele>
        <time>2025-07-13T08:43:53Z</time>
      </trkpt>
      <trkpt lat="47.21724" lon="4.93973">
        <ele>467.1</ele>
        <time>2025-07-13T08:44:07Z</time>
      </trkpt>
      <trkpt lat="47.21719" lon="4.93962">
        <ele>468.89</ele>
        <time>2025-07-13T08:44:18Z</time>
      </trkpt>
      <trkpt lat="47.21717" lon="4.93948">
        <ele>466.72</ele>
        <time>2025-07-13T08:44:27Z</time>
      </trkpt>
      <trkpt lat="47.2171" lon="4.93938">
        <ele>462.6</ele>
        <time>2025-07-13T08:44:36Z</time>
      </trkpt>
      <trkpt lat="47.21703" lon="4.93929">
        <ele>463.4</ele>
        <time>2025-07-13T08:44:45Z</time>
      </trkpt>
      <trkpt lat="47.21699" lon="4.93916">
        <ele>468.97</ele>
        <time>2025-07-13T08:44:55Z</time>
      </trkpt>
      <trkpt lat="47.21693" lon="4.93906">
        <ele>466.91</ele>
        <time>2025-07-13T08:45:06Z</time>
      </trkpt>
      <trkpt lat="47.21686" lon="4.93894">
        <ele>470.13</ele>
        <time>2025-07-13T08:45:14Z</time>
      </trkpt>
      <trkpt lat="47.21681" lon="4.93881">
        <ele>470.91</ele>
        <time>2025-07-13T08:45:31Z</time>
      </trkpt>
      <trkpt lat="47.21679" lon="4.93867">
        <ele>473.49</ele>
        <time>2025-07-13T08:45:44Z</time>
      </trkpt>
      <trkpt lat="47.21678" lon="4.93854">
        <ele>474.67</ele>
        <time>2025-07-13T08:45:56Z</time>
      </trkpt>
      <trkpt lat="47.21672" lon="4.93844">
        <ele>477.38</ele>
        <time>2025-07-13T08:46:07Z</time>
      </trkpt>
      <trkpt lat="47.2167" lon="4.93829">
        <ele>477.56</ele>
        <time>2025-07-13T08:46:18Z</time>
      </trkpt>
      <trkpt lat="47.2167" lon="4.93816">
        <ele>478.37</ele>
        <time>2025-07-13T08:46:29Z</time>
      </trkpt>
      <trkpt lat="47.21668" lon="4.93803">
        <ele>479.72</ele>
        <time>2025-07-13T08:46:44Z</time>
      </trkpt>
      <trkpt lat="47.21667" lon="4.93789">
        <ele>482.92</ele>
        <time>2025-07-13T08:46:58Z</time>
      </trkpt>
      <trkpt lat="47.21668" lon="4.93775">
        <ele>480.46</ele>
        <time>2025-07-13T08:47:16Z</time>
      </trkpt>
      <trkpt lat="47.21672" lon="4.93763">
        <ele>481.92</ele>
        <time>2025-07-13T08:47:29Z</time>
      </trkpt>
      <trkpt lat="47.21681" lon="4.93764">
        <ele>485.33</ele>
        <time>2025-07-13T08:47:47Z</time>
      </trkpt>
      <trkpt lat="47.21689" lon="4.9377">
        <ele>486.84</ele>
        <time>2025-07-13T08:48:03Z</time>
      </trkpt>
      <trkpt lat="47.21696" lon="4.93781">
        <ele>486.54</ele>
        <time>2025-07-13T08:48:16Z</time>
      </trkpt>
      <trkpt lat="47.21705" lon="4.93787">
        <ele>487.66</ele>
        <time>2025-07-13T08:48:29Z</time>
      </trkpt>
      <trkpt lat="47.2171" lon="4.93798">
        <ele>487.83</ele>
        <time>2025-07-13T08:48:39Z</time>
      </trkpt>
      <trkpt lat="47.21718" lon="4.93806">
        <ele>487.21</ele>
        <time>2025-07-13T08:48:50Z</time>
      </trkpt>
      <trkpt lat="47.21726" lon="4.93814">
        <ele>486.61</ele>
        <time>2025-07-13T08:49:02Z</time>
      </trkpt>
      <trkpt lat="47.21733" lon="4.93823">
        <ele>488.49</ele>
        <time>2025-07-13T08:49:13Z</time>
      </trkpt>
      <trkpt lat="47.21739" lon="4.93835">
        <ele>492.5</ele>
        <time>2025-07-13T08:49:22Z</time>
      </trkpt>
      <trkpt lat="47.21747" lon="4.93841">
        <ele>489.59</ele>
        <time>2025-07-13T08:49:37Z</time>
      </trkpt>
      <trkpt lat="47.21756" lon="4.93848">
        <ele>491.81</ele>
        <time>2025-07-13T08:49:50Z</time>
      </trkpt>
      <trkpt lat="47.21765" lon="4.93842">
        <ele>488.42</ele>
        <time>2025-07-13T08:50:01Z</time>
      </trkpt>
      <trkpt lat="47.21774" lon="4.93845">
        <ele>488.38</ele>
        <time>2025-07-13T08:50:15Z</time>
      </trkpt>
      <trkpt lat="47.21782" lon="4.93853">
        <ele>491.92</ele>
        <time>2025-07-13T08:50:27Z</time>
      </trkpt>
      <trkpt lat="47.21791" lon="4.9385">
        <ele>493.7</ele>
        <time>2025-07-13T08:50:40Z</time>
      </trkpt>
      <trkpt lat="47.218" lon="4.93853">
        <ele>495.6</ele>
        <time>2025-07-13T08:50:57Z</time>
      </trkpt>
      <trkpt lat="47.21809" lon="4.93857">
        <ele>497.98</ele>
        <time>2025-07-13T08:51:11Z</time>
      </trkpt>
      <trkpt lat="47.21818" lon="4.93855">
        <ele>491.7</ele>
        <time>2025-07-13T08:51:35Z</time>
      </trkpt>
      <trkpt lat="47.21827" lon="4.93851">
        <ele>494.04</ele>
        <time>2025-07-13T08:51:50Z</time>
      </trkpt>
      <trkpt lat="47.21834" lon="4.93842">
        <ele>493.9</ele>
        <time>2025-07-13T08:52:11Z</time>
      </trkpt>
      <trkpt lat="47.21839" lon="4.9383">
        <ele>496.35</ele>
        <time>2025-07-13T08:52:38Z</time>
      </trkpt>
      <trkpt lat="47.21842" lon="4.93817">
        <ele>495.98</ele>
        <time>2025-07-13T08:53:02Z</time>
      </trkpt>
      <trkpt lat="47.21845" lon="4.93805">
        <ele>497.5</ele>
        <time>2025-07-13T08:53:16Z</time>
      </trkpt>
      <trkpt lat="47.21849" lon="4.93792">
        <ele>498.17</ele>
        <time>2025-07-13T08:53:36Z</time>
      </trkpt>
      <trkpt lat="47.21852" lon="4.93779">
        <ele>500.5</ele>
        <time>2025-07-13T08:53:51Z</time>
      </trkpt>
      <trkpt lat="47.21855" lon="4.93766">
        <ele>503.61</ele>
        <time>2025-07-13T08:54:09Z</time>
      </trkpt>
      <trkpt lat="47.21856" lon="4.93753">
        <ele>496.96</ele>
        <time>2025-07-13T08:54:23Z</time>
      </trkpt>
      <trkpt lat="47.21858" lon="4.9374">
        <ele>499.11</ele>
        <time>2025-07-13T08:54:36Z</time>
      </trkpt>
      <trkpt lat="47.21862" lon="4.93728">
        <ele>501.83</ele>
        <time>2025-07-13T08:54:47Z</time>
      </trkpt>
      <trkpt lat="47.21867" lon="4.93716">
        <ele>504.51</ele>
        <time>2025-07-13T08:55:04Z</time>
      </trkpt>
      <trkpt lat="47.2187" lon="4.93703">
        <ele>501.4</ele>
        <time>2025-07-13T08:55:21Z</time>
      </trkpt>
      <trkpt lat="47.21874" lon="4.9369">
        <ele>502.6</ele>
        <time>2025-07-13T08:55:34Z</time>
      </trkpt>
      <trkpt lat="47.21878" lon="4.93677">
        <ele>504.45</ele>
        <time>2025-07-13T08:55:48Z</time>
      </trkpt>
      <trkpt lat="47.21883" lon="4.93667">
        <ele>504.12</ele>
        <time>2025-07-13T08:56:03Z</time>
      </trkpt>
      <trkpt lat="47.21891" lon="4.93658">
        <ele>505.68</ele>
        <time>2025-07-13T08:56:19Z</time>
      </trkpt>
      <trkpt lat="47.21897" lon="4.93648">
        <ele>506.41</ele>
        <time>2025-07-13T08:56:47Z</time>
      </trkpt>
      <trkpt lat="47.219" lon="4.93636">
        <ele>509.23</ele>
        <time>2025-07-13T08:57:16Z</time>
      </trkpt>
      <trkpt lat="47.21904" lon="4.93623">
        <ele>508.34</ele>
        <time>2025-07-13T08:57:30Z</time>
      </trkpt>
      <trkpt lat="47.21911" lon="4.93614">
        <ele>509.9</ele>
        <time>2025-07-13T08:57:44Z</time>
      </trkpt>
      <trkpt lat="47.21919" lon="4.93609">
        <ele>511.09</ele>
        <time>2025-07-13T08:57:59Z</time>
      </trkpt>
      <trkpt lat="47.21928" lon="4.93603">
        <ele>515.25</ele>
        <time>2025-07-13T08:58:09Z</time>
      </trkpt>
      <trkpt lat="47.21937" lon="4.936">
        <ele>513.11</ele>
        <time>2025-07-13T08:58:20Z</time>
      </trkpt>
      <trkpt lat="47.21943" lon="4.93588">
        <ele>513.69</ele>
        <time>2025-07-13T08:58:31Z</time>
      </trkpt>
      <trkpt lat="47.2195" lon="4.9358">
        <ele>505.26</ele>
        <time>2025-07-13T08:58:45Z</time>
      </trkpt>
      <trkpt lat="47.21957" lon="4.9357">
        <ele>503.58</ele>
        <time>2025-07-13T08:59:00Z</time>
      </trkpt>
      <trkpt lat="47.21965" lon="4.93562">
        <ele>501.63</ele>
        <time>2025-07-13T08:59:13Z</time>
      </trkpt>
      <trkpt lat="47.21972" lon="4.93553">
        <ele>502.1</ele>
        <time>2025-07-13T08:59:48Z</time>
      </trkpt>
      <trkpt lat="47.2198" lon="4.93543">
        <ele>499.91</ele>
        <time>2025-07-13T08:59:59Z</time>
      </trkpt>
      <trkpt lat="47.21985" lon="4.93532">
        <ele>501.35</ele>
        <time>2025-07-13T09:00:11Z</time>
      </trkpt>
      <trkpt lat="47.21993" lon="4.93524">
        <ele>506.99</ele>
        <time>2025-07-13T09:00:28Z</time>
      </trkpt>
      <trkpt lat="47.22001" lon="4.93517">
        <ele>507.51</ele>
        <time>2025-07-13T09:00:36Z</time>
      </trkpt>
      <trkpt lat="47.22009" lon="4.93513">
        <ele>507.7</ele>
        <time>2025-07-13T09:00:52Z</time>
      </trkpt>
      <trkpt lat="47.22018" lon="4.93508">
        <ele>506.12</ele>
        <time>2025-07-13T09:01:06Z</time>
      </trkpt>
      <trkpt lat="47.22026" lon="4.935">
        <ele>506.9</ele>
        <time>2025-07-13T09:01:21Z</time>
      </trkpt>
      <trkpt lat="47.22032" lon="4.93489">
        <ele>502.55</ele>
        <time>2025-07-13T09:01:32Z</time>
      </trkpt>
      <trkpt lat="47.2204" lon="4.93483">
        <ele>503.45</ele>
        <time>2025-07-13T09:01:46Z</time>
      </trkpt>
      <trkpt lat="47.22047" lon="4.93474">
        <ele>504.06</ele>
        <time>2025-07-13T09:02:00Z</time>
      </trkpt>
      <trkpt lat="47.22055" lon="4.93465">
        <ele>503.86</ele>
        <time>2025-07-13T09:02:10Z</time>
      </trkpt>
      <trkpt lat="47.22062" lon="4.93454">
        <ele>508.3</ele>
        <time>2025-07-13T09:02:19Z</time>
      </trkpt>
      <trkpt lat="47.22067" lon="4.93443">
        <ele>508.55</ele>
        <time>2025-07-13T09:02:29Z</time>
      </trkpt>
      <trkpt lat="47.22069" lon="4.93429">
        <ele>501.83</ele>
        <time>2025-07-13T09:02:42Z</time>
      </trkpt>
      <trkpt lat="47.22072" lon="4.93417">
        <ele>504.39</ele>
        <time>2025-07-13T09:03:02Z</time>
      </trkpt>
      <trkpt lat="47.2208" lon="4.93408">
        <ele>506.31</ele>
        <time>2025-07-13T09:03:10Z</time>
      </trkpt>
      <trkpt lat="47.22089" lon="4.93407">
        <ele>509.53</ele>
        <time>2025-07-13T09:03:21Z</time>
      </trkpt>
      <trkpt lat="47.22097" lon="4.934">
        <ele>509.14</ele>
        <time>2025-07-13T09:03:32Z</time>
      </trkpt>
      <trkpt lat="47.22103" lon="4.9339">
        <ele>511.35</ele>
        <time>2025-07-13T09:03:41Z</time>
      </trkpt>
      <trkpt lat="47.2211" lon="4.93381">
        <ele>509.49</ele>
        <time>2025-07-13T09:03:51Z</time>
      </trkpt>
      <trkpt lat="47.22118" lon="4.93372">
        <ele>509.41</ele>
        <time>2025-07-13T09:04:02Z</time>
      </trkpt>
      <trkpt lat="47.22127" lon="4.93366">
        <ele>504.38</ele>
        <time>2025-07-13T09:04:25Z</time>
      </trkpt>
      <trkpt lat="47.22136" lon="4.93359">
        <ele>502.45</ele>
        <time>2025-07-13T09:04:35Z</time>
      </trkpt>
      <trkpt lat="47.22144" lon="4.93355">
        <ele>507.76</ele>
        <time>2025-07-13T09:04:48Z</time>
      </trkpt>
      <trkpt lat="47.22152" lon="4.93348">
        <ele>501.09</ele>
        <time>2025-07-13T09:05:00Z</time>
      </trkpt>
      <trkpt lat="47.22159" lon="4.93339">
        <ele>501.93</ele>
        <time>2025-07-13T09:05:15Z</time>
      </trkpt>
      <trkpt lat="47.22165" lon="4.93328">
        <ele>504.75</ele>
        <time>2025-07-13T09:05:34Z</time>
      </trkpt>
      <trkpt lat="47.2217" lon="4.93316">
        <ele>497.98</ele>
        <time>2025-07-13T09:05:45Z</time>
      </trkpt>
      <trkpt lat="47.22173" lon="4.93303">
        <ele>497.5</ele>
        <time>2025-07-13T09:05:56Z</time>
      </trkpt>
      <trkpt lat="47.22181" lon="4.93294">
        <ele>500.73</ele>
        <time>2025-07-13T09:06:09Z</time>
      </trkpt>
      <trkpt lat="47.22184" lon="4.93282">
        <ele>498.07</ele>
        <time>2025-07-13T09:06:28Z</time>
      </trkpt>
      <trkpt lat="47.22187" lon="4.93269">
        <ele>497.99</ele>
        <time>2025-07-13T09:06:43Z</time>
      </trkpt>
      <trkpt lat="47.22191" lon="4.93257">
        <ele>498.02</ele>
        <time>2025-07-13T09:06:57Z</time>
      </trkpt>
      <trkpt lat="47.22193" lon="4.93244">
        <ele>496.66</ele>
        <time>2025-07-13T09:07:14Z</time>
      </trkpt>
      <trkpt lat="47.22195" lon="4.9323">
        <ele>498.57</ele>
        <time>2025-07-13T09:07:29Z</time>
      </trkpt>
      <trkpt lat="47.22198" lon="4.93217">
        <ele>499.2</ele>
        <time>2025-07-13T09:07:42Z</time>
      </trkpt>
      <trkpt lat="47.22202" lon="4.93204">
        <ele>496.57</ele>
        <time>2025-07-13T09:07:54Z</time>
      </trkpt>
      <trkpt lat="47.22203" lon="4.9319">
        <ele>497.6</ele>
        <time>2025-07-13T09:08:06Z</time>
      </trkpt>
      <trkpt lat="47.22201" lon="4.93177">
        <ele>496.17</ele>
        <time>2025-07-13T09:08:17Z</time>
      </trkpt>
      <trkpt lat="47.22203" lon="4.93162">
        <ele>499.63</ele>
        <time>2025-07-13T09:08:27Z</time>
      </trkpt>
      <trkpt lat="47.22202" lon="4.93148">
        <ele>498.04</ele>
        <time>2025-07-13T09:08:38Z</time>
      </trkpt>
      <trkpt lat="47.22201" lon="4.93134">
        <ele>497.36</ele>
        <time>2025-07-13T09:08:47Z</time>
      </trkpt>
      <trkpt lat="47.22205" lon="4.93122">
        <ele>498.56</ele>
        <time>2025-07-13T09:09:06Z</time>
      </trkpt>
      <trkpt lat="47.22209" lon="4.9311">
        <ele>494.11</ele>
        <time>2025-07-13T09:09:54Z</time>
      </trkpt>
      <trkpt lat="47.22211" lon="4.93097">
        <ele>488.65</ele>
        <time>2025-07-13T09:10:20Z</time>
      </trkpt>
      <trkpt lat="47.22218" lon="4.93088">
        <ele>486.97</ele>
        <time>2025-07-13T09:10:54Z</time>
      </trkpt>
      <trkpt lat="47.2222" lon="4.93075">
        <ele>481.86</ele>
        <time>2025-07-13T09:11:29Z</time>
      </trkpt>
      <trkpt lat="47.22219" lon="4.93061">
        <ele>479.19</ele>
        <time>2025-07-13T09:11:51Z</time>
      </trkpt>
      <trkpt lat="47.22212" lon="4.93051">
        <ele>478.66</ele>
        <time>2025-07-13T09:12:06Z</time>
      </trkpt>
      <trkpt lat="47.22205" lon="4.93042">
        <ele>475.58</ele>
        <time>2025-07-13T09:12:21Z</time>
      </trkpt>
      <trkpt lat="47.22206" lon="4.93028">
        <ele>477.2</ele>
        <time>2025-07-13T09:12:56Z</time>
      </trkpt>
      <trkpt lat="47.22213" lon="4.93019">
        <ele>475.03</ele>
        <time>2025-07-13T09:13:22Z</time>
      </trkpt>
      <trkpt lat="47.22205" lon="4.93025">
        <ele>478.34</ele>
        <time>2025-07-13T09:13:56Z</time>
      </trkpt>
      <trkpt lat="47.22211" lon="4.93015">
        <ele>486.35</ele>
        <time>2025-07-13T09:14:32Z</time>
      </trkpt>
      <trkpt lat="47.22219" lon="4.93007">
        <ele>487.91</ele>
        <time>2025-07-13T09:14:47Z</time>
      </trkpt>
      <trkpt lat="47.22225" lon="4.92995">
        <ele>481.01</ele>
        <time>2025-07-13T09:14:59Z</time>
      </trkpt>
      <trkpt lat="47.22232" lon="4.92987">
        <ele>480.09</ele>
        <time>2025-07-13T09:15:23Z</time>
      </trkpt>
      <trkpt lat="47.22239" lon="4.92977">
        <ele>479.32</ele>
        <time>2025-07-13T09:15:37Z</time>
      </trkpt>
      <trkpt lat="47.22248" lon="4.92972">
        <ele>478.45</ele>
        <time>2025-07-13T09:15:52Z</time>
      </trkpt>
      <trkpt lat="47.22256" lon="4.92964">
        <ele>481.31</ele>
        <time>2025-07-13T09:16:02Z</time>
      </trkpt>
      <trkpt lat="47.22257" lon="4.9295">
        <ele>476.16</ele>
        <time>2025-07-13T09:16:18Z</time>
      </trkpt>
      <trkpt lat="47.22257" lon="4.92937">
        <ele>473.46</ele>
        <time>2025-07-13T09:16:32Z</time>
      </trkpt>
      <trkpt lat="47.22262" lon="4.92925">
        <ele>477.66</ele>
        <time>2025-07-13T09:16:50Z</time>
      </trkpt>
      <trkpt lat="47.22267" lon="4.92913">
        <ele>477.66</ele>
        <time>2025-07-13T09:17:10Z</time>
      </trkpt>
      <trkpt lat="47.22272" lon="4.92901">
        <ele>476.05</ele>
        <time>2025-07-13T09:17:28Z</time>
      </trkpt>
      <trkpt lat="47.22268" lon="4.92889">
        <ele>473.18</ele>
        <time>2025-07-13T09:18:08Z</time>
      </trkpt>
      <trkpt lat="47.2227" lon="4.92875">
        <ele>477.78</ele>
        <time>2025-07-13T09:18:23Z</time>
      </trkpt>
      <trkpt lat="47.22274" lon="4.92863">
        <ele>477.94</ele>
        <time>2025-07-13T09:18:44Z</time>
      </trkpt>
      <trkpt lat="47.2227" lon="4.92851">
        <ele>474.97</ele>
        <time>2025-07-13T09:18:57Z</time>
      </trkpt>
      <trkpt lat="47.22277" lon="4.92842">
        <ele>481.8</ele>
        <time>2025-07-13T09:19:16Z</time>
      </trkpt>
      <trkpt lat="47.22278" lon="4.92828">
        <ele>478.1</ele>
        <time>2025-07-13T09:19:34Z</time>
      </trkpt>
      <trkpt lat="47.22278" lon="4.92815">
        <ele>477.96</ele>
        <time>2025-07-13T09:20:08Z</time>
      </trkpt>
      <trkpt lat="47.22279" lon="4.92801">
        <ele>476.82</ele>
        <time>2025-07-13T09:20:24Z</time>
      </trkpt>
      <trkpt lat="47.22283" lon="4.92788">
        <ele>477.14</ele>
        <time>2025-07-13T09:20:46Z</time>
      </trkpt>
      <trkpt lat="47.22289" lon="4.92777">
        <ele>479.91</ele>
        <time>2025-07-13T09:21:01Z</time>
      </trkpt>
      <trkpt lat="47.22291" lon="4.92763">
        <ele>480.8</ele>
        <time>2025-07-13T09:21:16Z</time>
      </trkpt>
      <trkpt lat="47.22292" lon="4.9275">
        <ele>479.47</ele>
        <time>2025-07-13T09:21:29Z</time>
      </trkpt>
      <trkpt lat="47.22297" lon="4.92737">
        <ele>477.08</ele>
        <time>2025-07-13T09:21:41Z</time>
      </trkpt>
      <trkpt lat="47.22305" lon="4.9273">
        <ele>481.03</ele>
        <time>2025-07-13T09:21:55Z</time>
      </trkpt>
      <trkpt lat="47.22308" lon="4.92717">
        <ele>482.95</ele>
        <time>2025-07-13T09:22:12Z</time>
      </trkpt>
      <trkpt lat="47.22312" lon="4.92704">
        <ele>481.15</ele>
        <time>2025-07-13T09:22:27Z</time>
      </trkpt>
      <trkpt lat="47.22316" lon="4.92691">
        <ele>480.46</ele>
        <time>2025-07-13T09:22:38Z</time>
      </trkpt>
      <trkpt lat="47.22322" lon="4.92682">
        <ele>485.12</ele>
        <time>2025-07-13T09:22:51Z</time>
      </trkpt>
      <trkpt lat="47.2233" lon="4.92677">
        <ele>485.72</ele>
        <time>2025-07-13T09:23:01Z</time>
      </trkpt>
      <trkpt lat="47.22335" lon="4.92665">
        <ele>481.46</ele>
        <time>2025-07-13T09:23:16Z</time>
      </trkpt>
      <trkpt lat="47.22341" lon="4.92655">
        <ele>481.5</ele>
        <time>2025-07-13T09:24:04Z</time>
      </trkpt>
      <trkpt lat="47.2235" lon="4.9265">
        <ele>475.86</ele>
        <time>2025-07-13T09:24:21Z</time>
      </trkpt>
      <trkpt lat="47.22358" lon="4.92642">
        <ele>474.43</ele>
        <time>2025-07-13T09:24:34Z</time>
      </trkpt>
      <trkpt lat="47.22367" lon="4.92643">
        <ele>467.79</ele>
        <time>2025-07-13T09:26:08Z</time>
      </trkpt>
      <trkpt lat="47.22375" lon="4.92637">
        <ele>463.68</ele>
        <time>2025-07-13T09:27:07Z</time>
      </trkpt>
      <trkpt lat="47.22382" lon="4.92628">
        <ele>464</ele>
        <time>2025-07-13T09:28:19Z</time>
      </trkpt>
      <trkpt lat="47.22389" lon="4.9262">
        <ele>462.65</ele>
        <time>2025-07-13T09:29:04Z</time>
      </trkpt>
      <trkpt lat="47.22399" lon="4.92621">
        <ele>463.54</ele>
        <time>2025-07-13T09:29:16Z</time>
      </trkpt>
      <trkpt lat="47.22408" lon="4.9262">
        <ele>464.91</ele>
        <time>2025-07-13T09:29:30Z</time>
      </trkpt>
      <trkpt lat="47.22417" lon="4.92615">
        <ele>467.79</ele>
        <time>2025-07-13T09:29:49Z</time>
      </trkpt>
      <trkpt lat="47.22425" lon="4.92609">
        <ele>470.76</ele>
        <time>2025-07-13T09:30:00Z</time>
      </trkpt>
      <trkpt lat="47.2242" lon="4.92621">
        <ele>474.94</ele>
        <time>2025-07-13T09:30:35Z</time>
      </trkpt>
      <trkpt lat="47.22415" lon="4.92633">
        <ele>474.45</ele>
        <time>2025-07-13T09:30:50Z</time>
      </trkpt>
      <trkpt lat="47.2241" lon="4.92645">
        <ele>475.51</ele>
        <time>2025-07-13T09:31:07Z</time>
      </trkpt>
      <trkpt lat="47.2241" lon="4.92658">
        <ele>474.94</ele>
        <time>2025-07-13T09:31:24Z</time>
      </trkpt>
      <trkpt lat="47.22408" lon="4.92672">
        <ele>477.41</ele>
        <time>2025-07-13T09:31:40Z</time>
      </trkpt>
      <trkpt lat="47.22408" lon="4.92685">
        <ele>479.18</ele>
        <time>2025-07-13T09:31:55Z</time>
      </trkpt>
      <trkpt lat="47.22408" lon="4.92698">
        <ele>480.77</ele>
        <time>2025-07-13T09:32:11Z</time>
      </trkpt>
      <trkpt lat="47.22406" lon="4.92712">
        <ele>483.57</ele>
        <time>2025-07-13T09:32:24Z</time>
      </trkpt>
      <trkpt lat="47.22407" lon="4.92726">
        <ele>482.25</ele>
        <time>2025-07-13T09:32:41Z</time>
      </trkpt>
      <trkpt lat="47.22405" lon="4.92739">
        <ele>484.36</ele>
        <time>2025-07-13T09:32:55Z</time>
      </trkpt>
      <trkpt lat="47.22406" lon="4.92753">
        <ele>483.84</ele>
        <time>2025-07-13T09:33:04Z</time>
      </trkpt>
      <trkpt lat="47.22405" lon="4.92767">
        <ele>482.06</ele>
        <time>2025-07-13T09:33:17Z</time>
      </trkpt>
      <trkpt lat="47.22405" lon="4.92782">
        <ele>485.02</ele>
        <time>2025-07-13T09:33:30Z</time>
      </trkpt>
      <trkpt lat="47.22405" lon="4.92795">
        <ele>486.67</ele>
        <time>2025-07-13T09:33:39Z</time>
      </trkpt>
      <trkpt lat="47.22408" lon="4.92808">
        <ele>486.96</ele>
        <time>2025-07-13T09:33:53Z</time>
      </trkpt>
      <trkpt lat="47.22411" lon="4.92821">
        <ele>487.77</ele>
        <time>2025-07-13T09:34:10Z</time>
      </trkpt>
      <trkpt lat="47.22414" lon="4.92834">
        <ele>488.7</ele>
        <time>2025-07-13T09:34:25Z</time>
      </trkpt>
      <trkpt lat="47.22417" lon="4.92847">
        <ele>491.15</ele>
        <time>2025-07-13T09:34:37Z</time>
      </trkpt>
      <trkpt lat="47.2242" lon="4.9286">
        <ele>493.18</ele>
        <time>2025-07-13T09:34:51Z</time>
      </trkpt>
      <trkpt lat="47.22427" lon="4.92869">
        <ele>497.09</ele>
        <time>2025-07-13T09:35:08Z</time>
      </trkpt>
      <trkpt lat="47.22436" lon="4.92875">
        <ele>497.99</ele>
        <time>2025-07-13T09:35:20Z</time>
      </trkpt>
      <trkpt lat="47.22441" lon="4.92888">
        <ele>500.09</ele>
        <time>2025-07-13T09:35:31Z</time>
      </trkpt>
      <trkpt lat="47.2245" lon="4.92893">
        <ele>500.84</ele>
        <time>2025-07-13T09:35:42Z</time>
      </trkpt>
      <trkpt lat="47.22459" lon="4.92897">
        <ele>501.28</ele>
        <time>2025-07-13T09:35:57Z</time>
      </trkpt>
      <trkpt lat="47.22461" lon="4.92897">
        <ele>502.47</ele>
        <time>2025-07-13T09:37:58Z</time>
      </trkpt>
      <trkpt lat="47.2247" lon="4.929">
        <ele>506.42</ele>
        <time>2025-07-13T09:38:45Z</time>
      </trkpt>
      <trkpt lat="47.22479" lon="4.92905">
        <ele>506.12</ele>
        <time>2025-07-13T09:38:57Z</time>
      </trkpt>
      <trkpt lat="47.22488" lon="4.9291">
        <ele>505.38</ele>
        <time>2025-07-13T09:39:12Z</time>
      </trkpt>
      <trkpt lat="47.22496" lon="4.92917">
        <ele>507.02</ele>
        <time>2025-07-13T09:39:22Z</time>
      </trkpt>
      <trkpt lat="47.22505" lon="4.92923">
        <ele>507.63</ele>
        <time>2025-07-13T09:39:33Z</time>
      </trkpt>
      <trkpt lat="47.22513" lon="4.92928">
        <ele>509.05</ele>
        <time>2025-07-13T09:39:43Z</time>
      </trkpt>
      <trkpt lat="47.22522" lon="4.92931">
        <ele>511.16</ele>
        <time>2025-07-13T09:39:53Z</time>
      </trkpt>
      <trkpt lat="47.22531" lon="4.92928">
        <ele>512.09</ele>
        <time>2025-07-13T09:40:04Z</time>
      </trkpt>
      <trkpt lat="47.2254" lon="4.92922">
        <ele>513.22</ele>
        <time>2025-07-13T09:40:17Z</time>
      </trkpt>
      <trkpt lat="47.22548" lon="4.92915">
        <ele>511.65</ele>
        <time>2025-07-13T09:40:26Z</time>
      </trkpt>
      <trkpt lat="47.22557" lon="4.92913">
        <ele>513.48</ele>
        <time>2025-07-13T09:40:37Z</time>
      </trkpt>
      <trkpt lat="47.22565" lon="4.92906">
        <ele>517.09</ele>
        <time>2025-07-13T09:40:48Z</time>
      </trkpt>
      <trkpt lat="47.22573" lon="4.929">
        <ele>517.06</ele>
        <time>2025-07-13T09:40:57Z</time>
      </trkpt>
      <trkpt lat="47.22582" lon="4.92895">
        <ele>510.53</ele>
        <time>2025-07-13T09:41:07Z</time>
      </trkpt>
      <trkpt lat="47.22592" lon="4.92898">
        <ele>513.95</ele>
        <time>2025-07-13T09:41:18Z</time>
      </trkpt>
      <trkpt lat="47.22601" lon="4.92902">
        <ele>518.64</ele>
        <time>2025-07-13T09:41:28Z</time>
      </trkpt>
      <trkpt lat="47.22611" lon="4.92902">
        <ele>517.29</ele>
        <time>2025-07-13T09:41:36Z</time>
      </trkpt>
      <trkpt lat="47.2262" lon="4.92899">
        <ele>517.09</ele>
        <time>2025-07-13T09:41:44Z</time>
      </trkpt>
      <trkpt lat="47.22629" lon="4.92892">
        <ele>518.02</ele>
        <time>2025-07-13T09:41:55Z</time>
      </trkpt>
      <trkpt lat="47.22636" lon="4.92883">
        <ele>519.9</ele>
        <time>2025-07-13T09:42:06Z</time>
      </trkpt>
      <trkpt lat="47.22643" lon="4.92874">
        <ele>518.19</ele>
        <time>2025-07-13T09:42:16Z</time>
      </trkpt>
      <trkpt lat="47.2265" lon="4.92866">
        <ele>515.88</ele>
        <time>2025-07-13T09:42:28Z</time>
      </trkpt>
      <trkpt lat="47.22657" lon="4.92875">
        <ele>517.53</ele>
        <time>2025-07-13T09:42:38Z</time>
      </trkpt>
      <trkpt lat="47.22657" lon="4.92888">
        <ele>518.83</ele>
        <time>2025-07-13T09:42:53Z</time>
      </trkpt>
      <trkpt lat="47.22659" lon="4.92902">
        <ele>518.62</ele>
        <time>2025-07-13T09:43:03Z</time>
      </trkpt>
      <trkpt lat="47.22663" lon="4.92915">
        <ele>514.95</ele>
        <time>2025-07-13T09:43:16Z</time>
      </trkpt>
      <trkpt lat="47.22667" lon="4.92927">
        <ele>514.95</ele>
        <time>2025-07-13T09:43:29Z</time>
      </trkpt>
      <trkpt lat="47.22676" lon="4.9293">
        <ele>514.57</ele>
        <time>2025-07-13T09:43:48Z</time>
      </trkpt>
      <trkpt lat="47.22685" lon="4.92934">
        <ele>511.02</ele>
        <time>2025-07-13T09:44:11Z</time>
      </trkpt>
      <trkpt lat="47.22693" lon="4.92941">
        <ele>511.28</ele>
        <time>2025-07-13T09:44:45Z</time>
      </trkpt>
      <trkpt lat="47.22699" lon="4.92951">
        <ele>506.05</ele>
        <time>2025-07-13T09:46:33Z</time>
      </trkpt>
      <trkpt lat="47.22708" lon="4.92955">
        <ele>501</ele>
        <time>2025-07-13T09:48:10Z</time>
      </trkpt>
      <trkpt lat="47.22715" lon="4.92964">
        <ele>498.94</ele>
        <time>2025-07-13T09:49:47Z</time>
      </trkpt>
      <trkpt lat="47.22724" lon="4.92969">
        <ele>496.51</ele>
        <time>2025-07-13T09:50:02Z</time>
      </trkpt>
      <trkpt lat="47.22733" lon="4.92972">
        <ele>495.92</ele>
        <time>2025-07-13T09:50:16Z</time>
      </trkpt>
      <trkpt lat="47.22739" lon="4.92982">
        <ele>500.45</ele>
        <time>2025-07-13T09:51:16Z</time>
      </trkpt>
      <trkpt lat="47.22729" lon="4.92986">
        <ele>492.12</ele>
        <time>2025-07-13T09:52:10Z</time>
      </trkpt>
      <trkpt lat="47.22721" lon="4.92991">
        <ele>495.04</ele>
        <time>2025-07-13T09:52:33Z</time>
      </trkpt>
      <trkpt lat="47.22713" lon="4.92997">
        <ele>499.91</ele>
        <time>2025-07-13T09:52:43Z</time>
      </trkpt>
      <trkpt lat="47.22705" lon="4.93006">
        <ele>496.36</ele>
        <time>2025-07-13T09:53:01Z</time>
      </trkpt>
      <trkpt lat="47.22698" lon="4.93016">
        <ele>496.4</ele>
        <time>2025-07-13T09:53:13Z</time>
      </trkpt>
      <trkpt lat="47.22693" lon="4.93028">
        <ele>495.18</ele>
        <time>2025-07-13T09:53:29Z</time>
      </trkpt>
      <trkpt lat="47.22687" lon="4.93038">
        <ele>496.09</ele>
        <time>2025-07-13T09:53:43Z</time>
      </trkpt>
      <trkpt lat="47.2268" lon="4.93046">
        <ele>497.05</ele>
        <time>2025-07-13T09:53:57Z</time>
      </trkpt>
      <trkpt lat="47.22671" lon="4.93051">
        <ele>496.63</ele>
        <time>2025-07-13T09:54:10Z</time>
      </trkpt>
      <trkpt lat="47.22662" lon="4.93048">
        <ele>496.96</ele>
        <time>2025-07-13T09:54:29Z</time>
      </trkpt>
      <trkpt lat="47.22652" lon="4.93044">
        <ele>496.45</ele>
        <time>2025-07-13T09:54:40Z</time>
      </trkpt>
      <trkpt lat="47.22643" lon="4.93045">
        <ele>494.43</ele>
        <time>2025-07-13T09:54:52Z</time>
      </trkpt>
      <trkpt lat="47.22634" lon="4.93045">
        <ele>492.64</ele>
        <time>2025-07-13T09:55:01Z</time>
      </trkpt>
      <trkpt lat="47.22625" lon="4.93048">
        <ele>492.54</ele>
        <time>2025-07-13T09:55:16Z</time>
      </trkpt>
      <trkpt lat="47.22619" lon="4.93037">
        <ele>486.36</ele>
        <time>2025-07-13T09:56:07Z</time>
      </trkpt>
      <trkpt lat="47.2261" lon="4.93037">
        <ele>489.33</ele>
        <time>2025-07-13T09:57:11Z</time>
      </trkpt>
      <trkpt lat="47.22601" lon="4.93042">
        <ele>488.4</ele>
        <time>2025-07-13T09:57:22Z</time>
      </trkpt>
      <trkpt lat="47.22591" lon="4.93047">
        <ele>489.45</ele>
        <time>2025-07-13T09:57:35Z</time>
      </trkpt>
      <trkpt lat="47.22583" lon="4.93054">
        <ele>488.43</ele>
        <time>2025-07-13T09:58:47Z</time>
      </trkpt>
      <trkpt lat="47.22576" lon="4.93063">
        <ele>489.78</ele>
        <time>2025-07-13T09:59:00Z</time>
      </trkpt>
      <trkpt lat="47.22569" lon="4.93073">
        <ele>490.73</ele>
        <time>2025-07-13T09:59:21Z</time>
      </trkpt>
      <trkpt lat="47.22561" lon="4.9308">
        <ele>488.57</ele>
        <time>2025-07-13T09:59:29Z</time>
      </trkpt>
      <trkpt lat="47.22555" lon="4.9309">
        <ele>490.33</ele>
        <time>2025-07-13T09:59:39Z</time>
      </trkpt>
      <trkpt lat="47.2255" lon="4.931">
        <ele>490.66</ele>
        <time>2025-07-13T09:59:54Z</time>
      </trkpt>
      <trkpt lat="47.22547" lon="4.93113">
        <ele>494.5</ele>
        <time>2025-07-13T10:00:06Z</time>
      </trkpt>
      <trkpt lat="47.22538" lon="4.93116">
        <ele>494.39</ele>
        <time>2025-07-13T10:00:27Z</time>
      </trkpt>
      <trkpt lat="47.2253" lon="4.93125">
        <ele>494.24</ele>
        <time>2025-07-13T10:00:40Z</time>
      </trkpt>
      <trkpt lat="47.22521" lon="4.93127">
        <ele>494.81</ele>
        <time>2025-07-13T10:00:52Z</time>
      </trkpt>
      <trkpt lat="47.22512" lon="4.93126">
        <ele>494.3</ele>
        <time>2025-07-13T10:01:09Z</time>
      </trkpt>
      <trkpt lat="47.22503" lon="4.93131">
        <ele>494.32</ele>
        <time>2025-07-13T10:01:29Z</time>
      </trkpt>
      <trkpt lat="47.22497" lon="4.93141">
        <ele>496.99</ele>
        <time>2025-07-13T10:01:43Z</time>
      </trkpt>
      <trkpt lat="47.22489" lon="4.93147">
        <ele>494.1</ele>
        <time>2025-07-13T10:03:20Z</time>
      </trkpt>
      <trkpt lat="47.22485" lon="4.93161">
        <ele>494.05</ele>
        <time>2025-07-13T10:03:41Z</time>
      </trkpt>
      <trkpt lat="47.22482" lon="4.93174">
        <ele>495.77</ele>
        <time>2025-07-13T10:04:16Z</time>
      </trkpt>
      <trkpt lat="47.22479" lon="4.93187">
        <ele>494.98</ele>
        <time>2025-07-13T10:04:45Z</time>
      </trkpt>
      <trkpt lat="47.22479" lon="4.93201">
        <ele>500.26</ele>
        <time>2025-07-13T10:05:18Z</time>
      </trkpt>
      <trkpt lat="47.22473" lon="4.9321">
        <ele>503.36</ele>
        <time>2025-07-13T10:05:34Z</time>
      </trkpt>
      <trkpt lat="47.2247" lon="4.93223">
        <ele>500.81</ele>
        <time>2025-07-13T10:05:54Z</time>
      </trkpt>
      <trkpt lat="47.22472" lon="4.93236">
        <ele>504.3</ele>
        <time>2025-07-13T10:06:13Z</time>
      </trkpt>
      <trkpt lat="47.22472" lon="4.93249">
        <ele>500.17</ele>
        <time>2025-07-13T10:06:37Z</time>
      </trkpt>
      <trkpt lat="47.22471" lon="4.93263">
        <ele>503.6</ele>
        <time>2025-07-13T10:07:03Z</time>
      </trkpt>
      <trkpt lat="47.22472" lon="4.93276">
        <ele>502.28</ele>
        <time>2025-07-13T10:07:22Z</time>
      </trkpt>
      <trkpt lat="47.22475" lon="4.93288">
        <ele>502.1</ele>
        <time>2025-07-13T10:07:42Z</time>
      </trkpt>
      <trkpt lat="47.22479" lon="4.93301">
        <ele>502.29</ele>
        <time>2025-07-13T10:08:09Z</time>
      </trkpt>
      <trkpt lat="47.22474" lon="4.93312">
        <ele>502.98</ele>
        <time>2025-07-13T10:08:32Z</time>
      </trkpt>
      <trkpt lat="47.22467" lon="4.9332">
        <ele>504.07</ele>
        <time>2025-07-13T10:08:46Z</time>
      </trkpt>
      <trkpt lat="47.22457" lon="4.9332">
        <ele>508.39</ele>
        <time>2025-07-13T10:09:33Z</time>
      </trkpt>
      <trkpt lat="47.22448" lon="4.93318">
        <ele>505.69</ele>
        <time>2025-07-13T10:10:02Z</time>
      </trkpt>
      <trkpt lat="47.22441" lon="4.93327">
        <ele>506.94</ele>
        <time>2025-07-13T10:10:15Z</time>
      </trkpt>
      <trkpt lat="47.22437" lon="4.93341">
        <ele>506.18</ele>
        <time>2025-07-13T10:10:34Z</time>
      </trkpt>
      <trkpt lat="47.22438" lon="4.93355">
        <ele>507.33</ele>
        <time>2025-07-13T10:11:01Z</time>
      </trkpt>
      <trkpt lat="47.22439" lon="4.93368">
        <ele>512.33</ele>
        <time>2025-07-13T10:11:24Z</time>
      </trkpt>
      <trkpt lat="47.2244" lon="4.93382">
        <ele>514.2</ele>
        <time>2025-07-13T10:11:44Z</time>
      </trkpt>
      <trkpt lat="47.22442" lon="4.93395">
        <ele>516.51</ele>
        <time>2025-07-13T10:12:00Z</time>
      </trkpt>
      <trkpt lat="47.22439" lon="4.93407">
        <ele>516.52</ele>
        <time>2025-07-13T10:12:20Z</time>
      </trkpt>
      <trkpt lat="47.22438" lon="4.93421">
        <ele>516.17</ele>
        <time>2025-07-13T10:12:38Z</time>
      </trkpt>
      <trkpt lat="47.22433" lon="4.93432">
        <ele>516.01</ele>
        <time>2025-07-13T10:12:56Z</time>
      </trkpt>
      <trkpt lat="47.22431" lon="4.93446">
        <ele>514.95</ele>
        <time>2025-07-13T10:13:16Z</time>
      </trkpt>
      <trkpt lat="47.22429" lon="4.93458">
        <ele>515.97</ele>
        <time>2025-07-13T10:13:30Z</time>
      </trkpt>
      <trkpt lat="47.22425" lon="4.93471">
        <ele>515.94</ele>
        <time>2025-07-13T10:13:47Z</time>
      </trkpt>
      <trkpt lat="47.22417" lon="4.9348">
        <ele>517.66</ele>
        <time>2025-07-13T10:14:03Z</time>
      </trkpt>
      <trkpt lat="47.2241" lon="4.93487">
        <ele>516.48</ele>
        <time>2025-07-13T10:14:17Z</time>
      </trkpt>
      <trkpt lat="47.22408" lon="4.93488">
        <ele>516.08</ele>
        <time>2025-07-13T10:16:18Z</time>
      </trkpt>
      <trkpt lat="47.22401" lon="4.93496">
        <ele>513.61</ele>
        <time>2025-07-13T10:18:04Z</time>
      </trkpt>
      <trkpt lat="47.22392" lon="4.93498">
        <ele>508.96</ele>
        <time>2025-07-13T10:18:50Z</time>
      </trkpt>
      <trkpt lat="47.22388" lon="4.9351">
        <ele>508.35</ele>
        <time>2025-07-13T10:19:22Z</time>
      </trkpt>
      <trkpt lat="47.22393" lon="4.93522">
        <ele>512.29</ele>
        <time>2025-07-13T10:19:57Z</time>
      </trkpt>
      <trkpt lat="47.22388" lon="4.93534">
        <ele>515.88</ele>
        <time>2025-07-13T10:20:15Z</time>
      </trkpt>
      <trkpt lat="47.22386" lon="4.93547">
        <ele>517.08</ele>
        <time>2025-07-13T10:20:51Z</time>
      </trkpt>
      <trkpt lat="47.22378" lon="4.93553">
        <ele>514.7</ele>
        <time>2025-07-13T10:21:10Z</time>
      </trkpt>
      <trkpt lat="47.22375" lon="4.93566">
        <ele>514.27</ele>
        <time>2025-07-13T10:21:34Z</time>
      </trkpt>
      <trkpt lat="47.2237" lon="4.93578">
        <ele>511.91</ele>
        <time>2025-07-13T10:21:49Z</time>
      </trkpt>
      <trkpt lat="47.22366" lon="4.9359">
        <ele>512.93</ele>
        <time>2025-07-13T10:22:36Z</time>
      </trkpt>
      <trkpt lat="47.22358" lon="4.936">
        <ele>506.73</ele>
        <time>2025-07-13T10:23:55Z</time>
      </trkpt>
      <trkpt lat="47.22358" lon="4.93603">
        <ele>502.25</ele>
        <time>2025-07-13T10:25:56Z</time>
      </trkpt>
      <trkpt lat="47.22358" lon="4.93604">
        <ele>502.37</ele>
        <time>2025-07-13T10:27:57Z</time>
      </trkpt>
      <trkpt lat="47.22356" lon="4.93605">
        <ele>496.54</ele>
        <time>2025-07-13T10:30:03Z</time>
      </trkpt>
      <trkpt lat="47.22349" lon="4.93612">
        <ele>499.35</ele>
        <time>2025-07-13T10:32:04Z</time>
      </trkpt>
      <trkpt lat="47.22342" lon="4.93621">
        <ele>501.72</ele>
        <time>2025-07-13T10:32:26Z</time>
      </trkpt>
      <trkpt lat="47.22343" lon="4.93634">
        <ele>503.04</ele>
        <time>2025-07-13T10:34:09Z</time>
      </trkpt>
      <trkpt lat="47.22341" lon="4.93648">
        <ele>504.9</ele>
        <time>2025-07-13T10:34:43Z</time>
      </trkpt>
      <trkpt lat="47.22339" lon="4.93661">
        <ele>507.09</ele>
        <time>2025-07-13T10:35:02Z</time>
      </trkpt>
      <trkpt lat="47.22341" lon="4.93674">
        <ele>507.92</ele>
        <time>2025-07-13T10:35:39Z</time>
      </trkpt>
      <trkpt lat="47.22346" lon="4.9368">
        <ele>509.73</ele>
        <time>2025-07-13T10:37:40Z</time>
      </trkpt>
      <trkpt lat="47.22349" lon="4.93693">
        <ele>510.54</ele>
        <time>2025-07-13T10:37:56Z</time>
      </trkpt>
      <trkpt lat="47.22348" lon="4.93707">
        <ele>511.45</ele>
        <time>2025-07-13T10:38:08Z</time>
      </trkpt>
      <trkpt lat="47.22343" lon="4.93719">
        <ele>513.93</ele>
        <time>2025-07-13T10:38:21Z</time>
      </trkpt>
      <trkpt lat="47.22336" lon="4.93729">
        <ele>514.31</ele>
        <time>2025-07-13T10:38:33Z</time>
      </trkpt>
      <trkpt lat="47.22329" lon="4.93737">
        <ele>511.01</ele>
        <time>2025-07-13T10:39:31Z</time>
      </trkpt>
      <trkpt lat="47.22321" lon="4.9373">
        <ele>509.74</ele>
        <time>2025-07-13T10:39:45Z</time>
      </trkpt>
      <trkpt lat="47.22312" lon="4.93736">
        <ele>510.38</ele>
        <time>2025-07-13T10:40:13Z</time>
      </trkpt>
      <trkpt lat="47.22305" lon="4.93744">
        <ele>511.68</ele>
        <time>2025-07-13T10:40:26Z</time>
      </trkpt>
      <trkpt lat="47.22298" lon="4.93752">
        <ele>511.66</ele>
        <time>2025-07-13T10:40:37Z</time>
      </trkpt>
      <trkpt lat="47.22293" lon="4.93764">
        <ele>511.48</ele>
        <time>2025-07-13T10:40:49Z</time>
      </trkpt>
      <trkpt lat="47.2229" lon="4.93778">
        <ele>511.64</ele>
        <time>2025-07-13T10:41:03Z</time>
      </trkpt>
      <trkpt lat="47.22285" lon="4.93789">
        <ele>510.07</ele>
        <time>2025-07-13T10:41:14Z</time>
      </trkpt>
      <trkpt lat="47.22277" lon="4.93796">
        <ele>510.64</ele>
        <time>2025-07-13T10:41:26Z</time>
      </trkpt>
      <trkpt lat="47.2227" lon="4.93805">
        <ele>510.16</ele>
        <time>2025-07-13T10:41:37Z</time>
      </trkpt>
      <trkpt lat="47.22261" lon="4.9381">
        <ele>508.82</ele>
        <time>2025-07-13T10:42:17Z</time>
      </trkpt>
      <trkpt lat="47.22254" lon="4.93817">
        <ele>508.08</ele>
        <time>2025-07-13T10:42:30Z</time>
      </trkpt>
      <trkpt lat="47.22247" lon="4.93826">
        <ele>507.86</ele>
        <time>2025-07-13T10:42:46Z</time>
      </trkpt>
      <trkpt lat="47.22241" lon="4.93836">
        <ele>507.79</ele>
        <time>2025-07-13T10:42:55Z</time>
      </trkpt>
      <trkpt lat="47.22237" lon="4.93848">
        <ele>508.49</ele>
        <time>2025-07-13T10:43:06Z</time>
      </trkpt>
      <trkpt lat="47.22241" lon="4.93861">
        <ele>508.36</ele>
        <time>2025-07-13T10:43:16Z</time>
      </trkpt>
      <trkpt lat="47.22242" lon="4.93875">
        <ele>508.23</ele>
        <time>2025-07-13T10:43:28Z</time>
      </trkpt>
      <trkpt lat="47.22241" lon="4.93889">
        <ele>507.95</ele>
        <time>2025-07-13T10:43:39Z</time>
      </trkpt>
      <trkpt lat="47.22244" lon="4.93902">
        <ele>506.09</ele>
        <time>2025-07-13T10:43:53Z</time>
      </trkpt>
      <trkpt lat="47.22248" lon="4.93914">
        <ele>504.17</ele>
        <time>2025-07-13T10:44:01Z</time>
      </trkpt>
      <trkpt lat="47.22255" lon="4.93925">
        <ele>504.58</ele>
        <time>2025-07-13T10:44:12Z</time>
      </trkpt>
      <trkpt lat="47.22262" lon="4.93934">
        <ele>504.31</ele>
        <time>2025-07-13T10:44:22Z</time>
      </trkpt>
      <trkpt lat="47.2227" lon="4.93941">
        <ele>505.17</ele>
        <time>2025-07-13T10:44:33Z</time>
      </trkpt>
      <trkpt lat="47.22278" lon="4.93947">
        <ele>504.75</ele>
        <time>2025-07-13T10:44:44Z</time>
      </trkpt>
      <trkpt lat="47.22285" lon="4.93955">
        <ele>503.49</ele>
        <time>2025-07-13T10:44:53Z</time>
      </trkpt>
      <trkpt lat="47.22293" lon="4.93961">
        <ele>506.04</ele>
        <time>2025-07-13T10:45:06Z</time>
      </trkpt>
      <trkpt lat="47.223" lon="4.9397">
        <ele>508.29</ele>
        <time>2025-07-13T10:45:16Z</time>
      </trkpt>
      <trkpt lat="47.22309" lon="4.93975">
        <ele>508.6</ele>
        <time>2025-07-13T10:45:27Z</time>
      </trkpt>
      <trkpt lat="47.22319" lon="4.9398">
        <ele>507.98</ele>
        <time>2025-07-13T10:45:39Z</time>
      </trkpt>
      <trkpt lat="47.22326" lon="4.93989">
        <ele>506.91</ele>
        <time>2025-07-13T10:45:49Z</time>
      </trkpt>
      <trkpt lat="47.22333" lon="4.93998">
        <ele>506.5</ele>
        <time>2025-07-13T10:45:59Z</time>
      </trkpt>
      <trkpt lat="47.22342" lon="4.94001">
        <ele>506.43</ele>
        <time>2025-07-13T10:46:10Z</time>
      </trkpt>
      <trkpt lat="47.22351" lon="4.94003">
        <ele>506.13</ele>
        <time>2025-07-13T10:46:20Z</time>
      </trkpt>
      <trkpt lat="47.2236" lon="4.94007">
        <ele>507.38</ele>
        <time>2025-07-13T10:46:30Z</time>
      </trkpt>
      <trkpt lat="47.22368" lon="4.94015">
        <ele>506.9</ele>
        <time>2025-07-13T10:46:41Z</time>
      </trkpt>
      <trkpt lat="47.22372" lon="4.94027">
        <ele>507.64</ele>
        <time>2025-07-13T10:46:51Z</time>
      </trkpt>
      <trkpt lat="47.22374" lon="4.94041">
        <ele>505.75</ele>
        <time>2025-07-13T10:47:01Z</time>
      </trkpt>
      <trkpt lat="47.22374" lon="4.94054">
        <ele>507.36</ele>
        <time>2025-07-13T10:47:11Z</time>
      </trkpt>
      <trkpt lat="47.22376" lon="4.94068">
        <ele>507.94</ele>
        <time>2025-07-13T10:47:23Z</time>
      </trkpt>
      <trkpt lat="47.22378" lon="4.94081">
        <ele>507.12</ele>
        <time>2025-07-13T10:47:33Z</time>
      </trkpt>
      <trkpt lat="47.22376" lon="4.94095">
        <ele>506.42</ele>
        <time>2025-07-13T10:47:45Z</time>
      </trkpt>
      <trkpt lat="47.22378" lon="4.94108">
        <ele>504.95</ele>
        <time>2025-07-13T10:47:55Z</time>
      </trkpt>
      <trkpt lat="47.22378" lon="4.94122">
        <ele>504.41</ele>
        <time>2025-07-13T10:48:05Z</time>
      </trkpt>
      <trkpt lat="47.22378" lon="4.94135">
        <ele>502.62</ele>
        <time>2025-07-13T10:48:17Z</time>
      </trkpt>
      <trkpt lat="47.22377" lon="4.94149">
        <ele>503.02</ele>
        <time>2025-07-13T10:50:11Z</time>
      </trkpt>
      <trkpt lat="47.22374" lon="4.94163">
        <ele>504.8</ele>
        <time>2025-07-13T10:50:30Z</time>
      </trkpt>
      <trkpt lat="47.22374" lon="4.94176">
        <ele>502.74</ele>
        <time>2025-07-13T10:50:46Z</time>
      </trkpt>
      <trkpt lat="47.22373" lon="4.9419">
        <ele>501.35</ele>
        <time>2025-07-13T10:50:57Z</time>
      </trkpt>
      <trkpt lat="47.22374" lon="4.94204">
        <ele>502.89</ele>
        <time>2025-07-13T10:51:11Z</time>
      </trkpt>
      <trkpt lat="47.22374" lon="4.94218">
        <ele>502.79</ele>
        <time>2025-07-13T10:51:25Z</time>
      </trkpt>
      <trkpt lat="47.22376" lon="4.94232">
        <ele>501.79</ele>
        <time>2025-07-13T10:51:37Z</time>
      </trkpt>
      <trkpt lat="47.22376" lon="4.94245">
        <ele>502.32</ele>
        <time>2025-07-13T10:51:49Z</time>
      </trkpt>
      <trkpt lat="47.22379" lon="4.94259">
        <ele>498.39</ele>
        <time>2025-07-13T10:52:01Z</time>
      </trkpt>
      <trkpt lat="47.22379" lon="4.94272">
        <ele>498.01</ele>
        <time>2025-07-13T10:52:15Z</time>
      </trkpt>
      <trkpt lat="47.22381" lon="4.94286">
        <ele>497.87</ele>
        <time>2025-07-13T10:52:34Z</time>
      </trkpt>
      <trkpt lat="47.22382" lon="4.94299">
        <ele>494.86</ele>
        <time>2025-07-13T10:52:45Z</time>
      </trkpt>
      <trkpt lat="47.22383" lon="4.94312">
        <ele>493.87</ele>
        <time>2025-07-13T10:52:57Z</time>
      </trkpt>
      <trkpt lat="47.22381" lon="4.94325">
        <ele>493.65</ele>
        <time>2025-07-13T10:53:08Z</time>
      </trkpt>
      <trkpt lat="47.22381" lon="4.94339">
        <ele>494.59</ele>
        <time>2025-07-13T10:53:20Z</time>
      </trkpt>
      <trkpt lat="47.22382" lon="4.94354">
        <ele>490.08</ele>
        <time>2025-07-13T10:53:31Z</time>
      </trkpt>
      <trkpt lat="47.22381" lon="4.94368">
        <ele>491.67</ele>
        <time>2025-07-13T10:53:49Z</time>
      </trkpt>
      <trkpt lat="47.22385" lon="4.9438">
        <ele>491.24</ele>
        <time>2025-07-13T10:54:03Z</time>
      </trkpt>
      <trkpt lat="47.22386" lon="4.94393">
        <ele>487.82</ele>
        <time>2025-07-13T10:54:13Z</time>
      </trkpt>
      <trkpt lat="47.22386" lon="4.94407">
        <ele>485.98</ele>
        <time>2025-07-13T10:54:24Z</time>
      </trkpt>
      <trkpt lat="47.22384" lon="4.94421">
        <ele>487.1</ele>
        <time>2025-07-13T10:54:37Z</time>
      </trkpt>
      <trkpt lat="47.22385" lon="4.94434">
        <ele>485.98</ele>
        <time>2025-07-13T10:54:48Z</time>
      </trkpt>
      <trkpt lat="47.22384" lon="4.94447">
        <ele>482.14</ele>
        <time>2025-07-13T10:54:59Z</time>
      </trkpt>
      <trkpt lat="47.22385" lon="4.94461">
        <ele>481.31</ele>
        <time>2025-07-13T10:55:10Z</time>
      </trkpt>
      <trkpt lat="47.22388" lon="4.94474">
        <ele>482.54</ele>
        <time>2025-07-13T10:55:25Z</time>
      </trkpt>
      <trkpt lat="47.22391" lon="4.94487">
        <ele>479.72</ele>
        <time>2025-07-13T10:55:38Z</time>
      </trkpt>
      <trkpt lat="47.22391" lon="4.94501">
        <ele>478.45</ele>
        <time>2025-07-13T10:55:49Z</time>
      </trkpt>
      <trkpt lat="47.2239" lon="4.94514">
        <ele>478.85</ele>
        <time>2025-07-13T10:56:02Z</time>
      </trkpt>
      <trkpt lat="47.22389" lon="4.94528">
        <ele>475.59</ele>
        <time>2025-07-13T10:56:15Z</time>
      </trkpt>
      <trkpt lat="47.22387" lon="4.94541">
        <ele>474.49</ele>
        <time>2025-07-13T10:56:27Z</time>
      </trkpt>
      <trkpt lat="47.22387" lon="4.94554">
        <ele>475.33</ele>
        <time>2025-07-13T10:56:38Z</time>
      </trkpt>
      <trkpt lat="47.22388" lon="4.94568">
        <ele>474.29</ele>
        <time>2025-07-13T10:56:52Z</time>
      </trkpt>
      <trkpt lat="47.22389" lon="4.94582">
        <ele>472.54</ele>
        <time>2025-07-13T10:57:03Z</time>
      </trkpt>
      <trkpt lat="47.2239" lon="4.94596">
        <ele>469.5</ele>
        <time>2025-07-13T10:57:16Z</time>
      </trkpt>
      <trkpt lat="47.2239" lon="4.9461">
        <ele>465.97</ele>
        <time>2025-07-13T10:57:30Z</time>
      </trkpt>
      <trkpt lat="47.22393" lon="4.94623">
        <ele>468.63</ele>
        <time>2025-07-13T10:57:44Z</time>
      </trkpt>
      <trkpt lat="47.22397" lon="4.94636">
        <ele>468.28</ele>
        <time>2025-07-13T10:57:55Z</time>
      </trkpt>
      <trkpt lat="47.22397" lon="4.94649">
        <ele>467.69</ele>
        <time>2025-07-13T10:58:08Z</time>
      </trkpt>
      <trkpt lat="47.22398" lon="4.94662">
        <ele>466.28</ele>
        <time>2025-07-13T10:58:19Z</time>
      </trkpt>
      <trkpt lat="47.224" lon="4.94676">
        <ele>467.33</ele>
        <time>2025-07-13T10:58:30Z</time>
      </trkpt>
      <trkpt lat="47.22397" lon="4.94689">
        <ele>463.94</ele>
        <time>2025-07-13T10:58:41Z</time>
      </trkpt>
      <trkpt lat="47.22395" lon="4.94703">
        <ele>462.58</ele>
        <time>2025-07-13T10:58:52Z</time>
      </trkpt>
      <trkpt lat="47.22398" lon="4.94717">
        <ele>461.07</ele>
        <time>2025-07-13T10:59:04Z</time>
      </trkpt>
      <trkpt lat="47.22401" lon="4.9473">
        <ele>461.12</ele>
        <time>2025-07-13T10:59:18Z</time>
      </trkpt>
      <trkpt lat="47.22402" lon="4.94743">
        <ele>456.97</ele>
        <time>2025-07-13T10:59:28Z</time>
      </trkpt>
      <trkpt lat="47.22405" lon="4.94755">
        <ele>454.73</ele>
        <time>2025-07-13T10:59:39Z</time>
      </trkpt>
      <trkpt lat="47.22409" lon="4.94768">
        <ele>454.34</ele>
        <time>2025-07-13T10:59:53Z</time>
      </trkpt>
      <trkpt lat="47.22412" lon="4.94781">
        <ele>453.3</ele>
        <time>2025-07-13T11:00:04Z</time>
      </trkpt>
      <trkpt lat="47.22412" lon="4.94795">
        <ele>450.84</ele>
        <time>2025-07-13T11:00:16Z</time>
      </trkpt>
      <trkpt lat="47.22413" lon="4.94808">
        <ele>451.16</ele>
        <time>2025-07-13T11:00:28Z</time>
      </trkpt>
      <trkpt lat="47.22416" lon="4.94821">
        <ele>451.74</ele>
        <time>2025-07-13T11:00:38Z</time>
      </trkpt>
      <trkpt lat="47.2242" lon="4.94834">
        <ele>452.63</ele>
        <time>2025-07-13T11:00:48Z</time>
      </trkpt>
      <trkpt lat="47.22418" lon="4.94847">
        <ele>449.73</ele>
        <time>2025-07-13T11:01:00Z</time>
      </trkpt>
      <trkpt lat="47.22418" lon="4.94861">
        <ele>447.59</ele>
        <time>2025-07-13T11:01:11Z</time>
      </trkpt>
      <trkpt lat="47.22416" lon="4.94874">
        <ele>448.31</ele>
        <time>2025-07-13T11:01:21Z</time>
      </trkpt>
      <trkpt lat="47.22417" lon="4.94888">
        <ele>447.59</ele>
        <time>2025-07-13T11:01:31Z</time>
      </trkpt>
      <trkpt lat="47.22417" lon="4.94902">
        <ele>449.05</ele>
        <time>2025-07-13T11:01:41Z</time>
      </trkpt>
      <trkpt lat="47.22418" lon="4.94915">
        <ele>446.56</ele>
        <time>2025-07-13T11:01:51Z</time>
      </trkpt>
      <trkpt lat="47.2242" lon="4.94928">
        <ele>445.16</ele>
        <time>2025-07-13T11:02:05Z</time>
      </trkpt>
      <trkpt lat="47.22425" lon="4.9494">
        <ele>442.15</ele>
        <time>2025-07-13T11:02:20Z</time>
      </trkpt>
      <trkpt lat="47.22432" lon="4.94949">
        <ele>441.44</ele>
        <time>2025-07-13T11:02:35Z</time>
      </trkpt>
      <trkpt lat="47.22437" lon="4.94961">
        <ele>441.07</ele>
        <time>2025-07-13T11:02:48Z</time>
      </trkpt>
      <trkpt lat="47.2244" lon="4.94974">
        <ele>439.55</ele>
        <time>2025-07-13T11:03:03Z</time>
      </trkpt>
      <trkpt lat="47.22445" lon="4.94986">
        <ele>440.09</ele>
        <time>2025-07-13T11:03:35Z</time>
      </trkpt>
      <trkpt lat="47.22448" lon="4.94999">
        <ele>435.84</ele>
        <time>2025-07-13T11:03:49Z</time>
      </trkpt>
      <trkpt lat="47.22454" lon="4.95009">
        <ele>437.22</ele>
        <time>2025-07-13T11:04:18Z</time>
      </trkpt>
      <trkpt lat="47.2246" lon="4.95019">
        <ele>433.26</ele>
        <time>2025-07-13T11:04:31Z</time>
      </trkpt>
      <trkpt lat="47.22468" lon="4.95028">
        <ele>435.35</ele>
        <time>2025-07-13T11:04:41Z</time>
      </trkpt>
      <trkpt lat="47.22473" lon="4.95039">
        <ele>434.35</ele>
        <time>2025-07-13T11:04:51Z</time>
      </trkpt>
      <trkpt lat="47.22475" lon="4.95053">
        <ele>430.46</ele>
        <time>2025-07-13T11:05:02Z</time>
      </trkpt>
      <trkpt lat="47.22479" lon="4.95065">
        <ele>431.66</ele>
        <time>2025-07-13T11:05:12Z</time>
      </trkpt>
      <trkpt lat="47.22483" lon="4.95078">
        <ele>429.8</ele>
        <time>2025-07-13T11:05:21Z</time>
      </trkpt>
      <trkpt lat="47.22488" lon="4.9509">
        <ele>430.77</ele>
        <time>2025-07-13T11:05:30Z</time>
      </trkpt>
      <trkpt lat="47.22491" lon="4.95103">
        <ele>431.5</ele>
        <time>2025-07-13T11:05:41Z</time>
      </trkpt>
      <trkpt lat="47.22494" lon="4.95116">
        <ele>429.26</ele>
        <time>2025-07-13T11:05:50Z</time>
      </trkpt>
      <trkpt lat="47.22497" lon="4.95129">
        <ele>429.64</ele>
        <time>2025-07-13T11:06:00Z</time>
      </trkpt>
      <trkpt lat="47.22495" lon="4.95143">
        <ele>426.87</ele>
        <time>2025-07-13T11:06:14Z</time>
      </trkpt>
      <trkpt lat="47.22499" lon="4.95155">
        <ele>429.07</ele>
        <time>2025-07-13T11:06:22Z</time>
      </trkpt>
      <trkpt lat="47.22502" lon="4.95168">
        <ele>430.13</ele>
        <time>2025-07-13T11:06:31Z</time>
      </trkpt>
      <trkpt lat="47.22503" lon="4.95183">
        <ele>427.18</ele>
        <time>2025-07-13T11:06:40Z</time>
      </trkpt>
      <trkpt lat="47.22505" lon="4.95197">
        <ele>426.69</ele>
        <time>2025-07-13T11:06:50Z</time>
      </trkpt>
      <trkpt lat="47.22503" lon="4.9521">
        <ele>422.15</ele>
        <time>2025-07-13T11:07:00Z</time>
      </trkpt>
      <trkpt lat="47.22504" lon="4.95224">
        <ele>421.4</ele>
        <time>2025-07-13T11:07:12Z</time>
      </trkpt>
      <trkpt lat="47.22503" lon="4.95238">
        <ele>415.63</ele>
        <time>2025-07-13T11:07:26Z</time>
      </trkpt>
      <trkpt lat="47.22503" lon="4.95251">
        <ele>411.07</ele>
        <time>2025-07-13T11:07:43Z</time>
      </trkpt>
      <trkpt lat="47.22503" lon="4.95266">
        <ele>409.78</ele>
        <time>2025-07-13T11:08:03Z</time>
      </trkpt>
      <trkpt lat="47.22504" lon="4.9528">
        <ele>410.78</ele>
        <time>2025-07-13T11:08:17Z</time>
      </trkpt>
      <trkpt lat="47.22504" lon="4.95294">
        <ele>413.17</ele>
        <time>2025-07-13T11:08:32Z</time>
      </trkpt>
      <trkpt lat="47.22507" lon="4.95307">
        <ele>412.79</ele>
        <time>2025-07-13T11:08:43Z</time>
      </trkpt>
      <trkpt lat="47.2251" lon="4.9532">
        <ele>411.88</ele>
        <time>2025-07-13T11:08:55Z</time>
      </trkpt>
      <trkpt lat="47.2251" lon="4.95334">
        <ele>405.3</ele>
        <time>2025-07-13T11:09:13Z</time>
      </trkpt>
      <trkpt lat="47.22514" lon="4.95347">
        <ele>405.86</ele>
        <time>2025-07-13T11:09:26Z</time>
      </trkpt>
      <trkpt lat="47.22518" lon="4.9536">
        <ele>402</ele>
        <time>2025-07-13T11:09:41Z</time>
      </trkpt>
      <trkpt lat="47.22521" lon="4.95372">
        <ele>399.01</ele>
        <time>2025-07-13T11:11:01Z</time>
      </trkpt>
      <trkpt lat="47.22523" lon="4.95386">
        <ele>398.61</ele>
        <time>2025-07-13T11:11:19Z</time>
      </trkpt>
      <trkpt lat="47.22525" lon="4.954">
        <ele>395.15</ele>
        <time>2025-07-13T11:11:34Z</time>
      </trkpt>
      <trkpt lat="47.22526" lon="4.95413">
        <ele>392.46</ele>
        <time>2025-07-13T11:11:49Z</time>
      </trkpt>
      <trkpt lat="47.22526" lon="4.95427">
        <ele>391.26</ele>
        <time>2025-07-13T11:12:04Z</time>
      </trkpt>
      <trkpt lat="47.22523" lon="4.9544">
        <ele>388.9</ele>
        <time>2025-07-13T11:12:16Z</time>
      </trkpt>
      <trkpt lat="47.22522" lon="4.95453">
        <ele>390.01</ele>
        <time>2025-07-13T11:12:32Z</time>
      </trkpt>
      <trkpt lat="47.22514" lon="4.95462">
        <ele>389.37</ele>
        <time>2025-07-13T11:12:43Z</time>
      </trkpt>
      <trkpt lat="47.22506" lon="4.95469">
        <ele>386.51</ele>
        <time>2025-07-13T11:12:55Z</time>
      </trkpt>
      <trkpt lat="47.22498" lon="4.95477">
        <ele>387.53</ele>
        <time>2025-07-13T11:13:09Z</time>
      </trkpt>
      <trkpt lat="47.2249" lon="4.95481">
        <ele>383.21</ele>
        <time>2025-07-13T11:13:18Z</time>
      </trkpt>
      <trkpt lat="47.2248" lon="4.9548">
        <ele>382.01</ele>
        <time>2025-07-13T11:13:31Z</time>
      </trkpt>
      <trkpt lat="47.22471" lon="4.95479">
        <ele>378.6</ele>
        <time>2025-07-13T11:13:46Z</time>
      </trkpt>
      <trkpt lat="47.22463" lon="4.95471">
        <ele>378.82</ele>
        <time>2025-07-13T11:13:57Z</time>
      </trkpt>
      <trkpt lat="47.22454" lon="4.95467">
        <ele>373.11</ele>
        <time>2025-07-13T11:14:20Z</time>
      </trkpt>
      <trkpt lat="47.22446" lon="4.95461">
        <ele>367.35</ele>
        <time>2025-07-13T11:14:47Z</time>
      </trkpt>
      <trkpt lat="47.22438" lon="4.95454">
        <ele>363.81</ele>
        <time>2025-07-13T11:15:03Z</time>
      </trkpt>
      <trkpt lat="47.22429" lon="4.9545">
        <ele>357.15</ele>
        <time>2025-07-13T11:16:25Z</time>
      </trkpt>
      <trkpt lat="47.2242" lon="4.95453">
        <ele>360.02</ele>
        <time>2025-07-13T11:16:51Z</time>
      </trkpt>
      <trkpt lat="47.22411" lon="4.9545">
        <ele>358.66</ele>
        <time>2025-07-13T11:17:05Z</time>
      </trkpt>
      <trkpt lat="47.22404" lon="4.95439">
        <ele>357.45</ele>
        <time>2025-07-13T11:17:12Z</time>
      </trkpt>
      <trkpt lat="47.22399" lon="4.95427">
        <ele>355.2</ele>
        <time>2025-07-13T11:17:19Z</time>
      </trkpt>
      <trkpt lat="47.22395" lon="4.95416">
        <ele>355.41</ele>
        <time>2025-07-13T11:17:27Z</time>
      </trkpt>
      <trkpt lat="47.22391" lon="4.95404">
        <ele>353.79</ele>
        <time>2025-07-13T11:17:34Z</time>
      </trkpt>
      <trkpt lat="47.22387" lon="4.95391">
        <ele>352.16</ele>
        <time>2025-07-13T11:17:42Z</time>
      </trkpt>
      <trkpt lat="47.22382" lon="4.95379">
        <ele>350.59</ele>
        <time>2025-07-13T11:17:51Z</time>
      </trkpt>
      <trkpt lat="47.22379" lon="4.95366">
        <ele>351.09</ele>
        <time>2025-07-13T11:18:00Z</time>
      </trkpt>
      <trkpt lat="47.22375" lon="4.95353">
        <ele>350.17</ele>
        <time>2025-07-13T11:18:09Z</time>
      </trkpt>
      <trkpt lat="47.22365" lon="4.95352">
        <ele>349.68</ele>
        <time>2025-07-13T11:18:21Z</time>
      </trkpt>
      <trkpt lat="47.22356" lon="4.95356">
        <ele>348.67</ele>
        <time>2025-07-13T11:18:30Z</time>
      </trkpt>
      <trkpt lat="47.22347" lon="4.9535">
        <ele>347.95</ele>
        <time>2025-07-13T11:18:39Z</time>
      </trkpt>
      <trkpt lat="47.22345" lon="4.95337">
        <ele>348.73</ele>
        <time>2025-07-13T11:18:47Z</time>
      </trkpt>
      <trkpt lat="47.2234" lon="4.95325">
        <ele>349.98</ele>
        <time>2025-07-13T11:18:56Z</time>
      </trkpt>
      <trkpt lat="47.22338" lon="4.95312">
        <ele>350.49</ele>
        <time>2025-07-13T11:19:06Z</time>
      </trkpt>
      <trkpt lat="47.22334" lon="4.95298">
        <ele>351.42</ele>
        <time>2025-07-13T11:19:17Z</time>
      </trkpt>
      <trkpt lat="47.2233" lon="4.95285">
        <ele>351.02</ele>
        <time>2025-07-13T11:19:26Z</time>
      </trkpt>
      <trkpt lat="47.22328" lon="4.95272">
        <ele>353.84</ele>
        <time>2025-07-13T11:19:37Z</time>
      </trkpt>
      <trkpt lat="47.22323" lon="4.9526">
        <ele>357.81</ele>
        <time>2025-07-13T11:19:46Z</time>
      </trkpt>
      <trkpt lat="47.22322" lon="4.95247">
        <ele>361.35</ele>
        <time>2025-07-13T11:19:57Z</time>
      </trkpt>
      <trkpt lat="47.22316" lon="4.95237">
        <ele>369.47</ele>
        <time>2025-07-13T11:21:11Z</time>
      </trkpt>
      <trkpt lat="47.22312" lon="4.95224">
        <ele>370.91</ele>
        <time>2025-07-13T11:21:30Z</time>
      </trkpt>
      <trkpt lat="47.22309" lon="4.95211">
        <ele>370.6</ele>
        <time>2025-07-13T11:22:00Z</time>
      </trkpt>
      <trkpt lat="47.22307" lon="4.95198">
        <ele>371.32</ele>
        <time>2025-07-13T11:22:25Z</time>
      </trkpt>
      <trkpt lat="47.22303" lon="4.95185">
        <ele>374.59</ele>
        <time>2025-07-13T11:22:45Z</time>
      </trkpt>
      <trkpt lat="47.22302" lon="4.95172">
        <ele>372.07</ele>
        <time>2025-07-13T11:22:55Z</time>
      </trkpt>
      <trkpt lat="47.22299" lon="4.95159">
        <ele>372.63</ele>
        <time>2025-07-13T11:23:08Z</time>
      </trkpt>
      <trkpt lat="47.22293" lon="4.95147">
        <ele>372.62</ele>
        <time>2025-07-13T11:23:22Z</time>
      </trkpt>
      <trkpt lat="47.22288" lon="4.95136">
        <ele>374</ele>
        <time>2025-07-13T11:23:34Z</time>
      </trkpt>
      <trkpt lat="47.22285" lon="4.95123">
        <ele>376.46</ele>
        <time>2025-07-13T11:23:57Z</time>
      </trkpt>
      <trkpt lat="47.22283" lon="4.9511">
        <ele>374.28</ele>
        <time>2025-07-13T11:24:08Z</time>
      </trkpt>
      <trkpt lat="47.22277" lon="4.951">
        <ele>375.93</ele>
        <time>2025-07-13T11:24:24Z</time>
      </trkpt>
      <trkpt lat="47.22275" lon="4.95086">
        <ele>377.15</ele>
        <time>2025-07-13T11:24:39Z</time>
      </trkpt>
      <trkpt lat="47.22271" lon="4.95074">
        <ele>373.47</ele>
        <time>2025-07-13T11:24:49Z</time>
      </trkpt>
      <trkpt lat="47.22266" lon="4.95062">
        <ele>377.17</ele>
        <time>2025-07-13T11:25:06Z</time>
      </trkpt>
      <trkpt lat="47.22265" lon="4.95049">
        <ele>369.56</ele>
        <time>2025-07-13T11:25:16Z</time>
      </trkpt>
      <trkpt lat="47.22267" lon="4.95036">
        <ele>370.2</ele>
        <time>2025-07-13T11:25:30Z</time>
      </trkpt>
      <trkpt lat="47.22264" lon="4.95023">
        <ele>368.21</ele>
        <time>2025-07-13T11:25:45Z</time>
      </trkpt>
      <trkpt lat="47.2226" lon="4.95011">
        <ele>367.04</ele>
        <time>2025-07-13T11:27:30Z</time>
        <extensions>
          <visugpx:TrkExtension xmlns:visugpx="https://www.visugpx.com/editgpx/">
            <visugpx:node>1</visugpx:node>
            </visugpx:TrkExtension>
        </extensions>
      </trkpt>
      <trkpt lat="47.22263" lon="4.95">
        <ele>314.4</ele>
        <time>2025-07-13T11:29:03.110Z</time>
      </trkpt>
      <trkpt lat="47.22259" lon="4.94991">
        <ele>314.1</ele>
        <time>2025-07-13T11:30:27.595Z</time>
      </trkpt>
      <trkpt lat="47.22249" lon="4.94953">
        <ele>312.9</ele>
        <time>2025-07-13T11:35:47.701Z</time>
      </trkpt>
      <trkpt lat="47.22246" lon="4.94941">
        <ele>314.1</ele>
        <time>2025-07-13T11:37:28.141Z</time>
      </trkpt>
      <trkpt lat="47.22235" lon="4.94899">
        <ele>317.1</ele>
        <time>2025-07-13T11:43:21.720Z</time>
      </trkpt>
      <trkpt lat="47.22223" lon="4.94863">
        <ele>315.3</ele>
        <time>2025-07-13T11:48:36.713Z</time>
      </trkpt>
      <trkpt lat="47.22201" lon="4.94844">
        <ele>318.6</ele>
        <time>2025-07-13T11:53:31.691Z</time>
      </trkpt>
      <trkpt lat="47.2219" lon="4.94833">
        <ele>319.1</ele>
        <time>2025-07-13T11:56:05.477Z</time>
      </trkpt>
      <trkpt lat="47.22172" lon="4.94814">
        <ele>324</ele>
        <time>2025-07-13T12:00:21.622Z</time>
      </trkpt>
      <trkpt lat="47.22159" lon="4.94802">
        <ele>327.5</ele>
        <time>2025-07-13T12:03:19.074Z</time>
      </trkpt>
      <trkpt lat="47.2213" lon="4.94759">
        <ele>335</ele>
        <time>2025-07-13T12:11:15.065Z</time>
      </trkpt>
      <trkpt lat="47.22121" lon="4.94742">
        <ele>337.6</ele>
        <time>2025-07-13T12:14:04.372Z</time>
        <extensions>
          <visugpx:TrkExtension xmlns:visugpx="https://www.visugpx.com/editgpx/">
            <visugpx:node>2</visugpx:node>
            </visugpx:TrkExtension>
        </extensions>
      </trkpt>
    </trkseg>
  </trk>
</gpx>